Terminal Aerodrome Forecast
Issued by NWS

Home | Current Version | Previous Version | Text Only | Print | Product List | Glossary On
Versions: 1 2 3 4 5 6 7 8 9 10 11 12 13 14 15 16 17
000
FTPA31 PHFO 301136
TAFHLI
TAF
PHLI 301136Z 3012/0112 07012KT P6SM VCSH SCT025 BKN050
     FM302000 06012KT P6SM FEW025 SCT050
     FM010600 06012KT P6SM VCSH SCT025 BKN050=

USA.gov is the U.S. government's official web portal to all federal, state and local government web resources and services.